Time;durP1;ratioP1;P1;durP2;ratioP2;P2;SDS_P1;SDS_P2;PMS_P1;PMS_P2;Temp;Humidity;BMP_temperature;BMP_pressure;BME280_temperature;BME280_humidity;BME280_pressure;Samples;Min_cycle;Max_cycle;Signal;HPM_P1;HPM_P2
2022/06/20 00:01:32;;;;;;;30.33;5.50;;;;;;;21.75;61.40;98636.03;8473444;27;20059;-73
2022/06/20 00:05:36;;;;;;;24.45;5.57;;;;;;;21.74;61.59;98634.47;8440788;28;20044;-73
2022/06/20 00:09:37;;;;;;;16.30;5.30;;;;;;;21.73;62.03;98632.91;8447369;27;20043;-72
2022/06/20 00:13:40;;;;;;;13.02;5.40;;;;;;;21.65;61.99;98621.13;8477610;27;20043;-73
2022/06/20 00:17:41;;;;;;;15.65;5.57;;;;;;;21.53;62.47;98612.50;8445283;28;20056;-72
2022/06/20 00:21:42;;;;;;;20.52;5.88;;;;;;;21.42;62.80;98613.28;8449422;28;20097;-73
2022/06/20 00:25:43;;;;;;;16.42;5.22;;;;;;;21.36;63.29;98598.38;8453057;28;20135;-72
2022/06/20 00:29:44;;;;;;;17.90;5.85;;;;;;;21.29;63.53;98614.88;8477791;27;20100;-73
2022/06/20 00:33:45;;;;;;;18.58;5.63;;;;;;;21.21;64.10;98591.31;8473267;27;20076;-73
2022/06/20 00:37:47;;;;;;;17.67;5.70;;;;;;;21.18;64.66;98608.56;8489588;27;20488;-73
2022/06/20 00:41:49;;;;;;;20.55;6.30;;;;;;;21.14;65.44;98602.31;8469581;27;20089;-73
2022/06/20 00:45:52;;;;;;;18.42;6.05;;;;;;;21.12;65.87;98599.13;8489926;27;20055;-73
2022/06/20 00:50:05;;;;;;;22.05;7.00;;;;;;;21.09;66.29;98599.91;8468783;27;20557;-73
2022/06/20 00:54:18;;;;;;;20.35;5.97;;;;;;;21.00;66.64;98600.28;8484147;27;20047;-72
2022/06/20 00:58:40;;;;;;;24.40;5.80;;;;;;;20.97;66.85;98611.25;8477182;27;20055;-72
2022/06/20 01:02:45;;;;;;;14.75;6.22;;;;;;;20.89;67.26;98618.69;8477094;27;20069;-72
2022/06/20 01:06:52;;;;;;;17.10;6.40;;;;;;;20.77;68.40;98615.53;8482146;27;20043;-72
2022/06/20 01:11:00;;;;;;;15.63;6.15;;;;;;;20.70;68.82;98620.97;8494515;27;20051;-72
2022/06/20 01:15:01;;;;;;;24.38;7.15;;;;;;;20.67;69.51;98621.78;8471075;27;20550;-73
2022/06/20 01:19:06;;;;;;;22.63;7.28;;;;;;;20.64;70.82;98624.09;8477667;27;20067;-73
2022/06/20 01:23:25;;;;;;;19.90;6.43;;;;;;;20.59;71.61;98643.69;8490920;27;20257;-72
2022/06/20 01:27:34;;;;;;;19.42;6.28;;;;;;;20.58;72.61;98653.06;8489753;27;20058;-72
2022/06/20 01:31:53;;;;;;;;;;;;;;;20.51;72.56;98664.03;8516073;27;20118;-73
2022/06/20 01:40:15;;;;;;;26.33;7.28;;;;;;;20.35;76.16;98666.31;8514481;27;20050;-73
2022/06/20 01:44:17;;;;;;;18.45;7.10;;;;;;;20.29;76.42;98673.28;8481396;27;20055;-72
2022/06/20 01:48:20;;;;;;;27.48;7.90;;;;;;;20.29;78.01;98678.78;8499075;27;20051;-73
2022/06/20 01:52:21;;;;;;;26.50;9.85;;;;;;;20.26;79.72;98690.50;8520267;27;20043;-74
2022/06/20 01:56:23;;;;;;;21.98;8.23;;;;;;;20.26;80.52;98701.47;8508709;27;20049;-73
2022/06/20 02:00:24;;;;;;;28.75;9.77;;;;;;;20.31;80.86;98698.38;8505979;27;20080;-74
2022/06/20 02:04:27;;;;;;;27.63;9.15;;;;;;;20.27;81.03;98702.25;8498708;27;20489;-72
2022/06/20 02:08:29;;;;;;;28.05;8.93;;;;;;;20.26;81.14;98723.41;8490198;27;20096;-71
2022/06/20 02:12:31;;;;;;;29.58;9.88;;;;;;;20.21;81.60;98721.00;8503738;27;20050;-73
2022/06/20 02:16:35;;;;;;;29.23;9.80;;;;;;;20.12;81.84;98747.97;8481953;27;20038;-72
2022/06/20 02:20:49;;;;;;;24.80;9.40;;;;;;;20.12;82.28;98761.69;8491879;27;20047;-72
2022/06/20 02:25:00;;;;;;;18.73;9.20;;;;;;;20.05;82.47;98745.19;8491572;27;20047;-72
2022/06/20 02:29:25;;;;;;;23.08;10.43;;;;;;;20.04;82.92;98754.59;8519195;27;20055;-73
2022/06/20 02:33:29;;;;;;;32.33;9.43;;;;;;;19.95;83.29;98757.63;8495258;27;20095;-72
2022/06/20 02:37:29;;;;;;;20.40;10.13;;;;;;;19.92;83.15;98768.56;8461428;27;20073;-72
2022/06/20 02:41:34;;;;;;;25.30;9.40;;;;;;;19.91;82.84;98767.00;8507404;27;20435;-72
2022/06/20 02:45:38;;;;;;;22.83;10.15;;;;;;;19.79;83.52;98765.31;8495094;27;20054;-73
2022/06/20 02:49:42;;;;;;;22.00;9.95;;;;;;;19.78;83.02;98759.06;8496591;27;20050;-72
2022/06/20 02:54:08;;;;;;;23.67;10.18;;;;;;;19.67;83.98;98747.22;8502947;27;20050;-72
2022/06/20 02:58:22;;;;;;;19.75;10.15;;;;;;;19.72;83.50;98760.56;8454984;27;20051;-73
2022/06/20 03:02:26;;;;;;;22.42;9.98;;;;;;;19.57;84.38;98758.84;8514019;27;20047;-72
2022/06/20 03:06:37;;;;;;;24.90;10.73;;;;;;;19.53;84.70;98758.03;8499845;27;20055;-73
2022/06/20 03:10:41;;;;;;;24.20;10.55;;;;;;;19.52;84.49;98745.50;8493908;27;20408;-72
2022/06/20 03:14:46;;;;;;;26.60;11.00;;;;;;;19.53;84.46;98747.06;8519160;27;20054;-73
2022/06/20 03:18:50;;;;;;;21.67;9.63;;;;;;;19.51;84.25;98749.41;8509168;27;20091;-72
2022/06/20 03:22:59;;;;;;;23.58;10.98;;;;;;;19.56;83.62;98740.88;8507765;27;20411;-72
2022/06/20 03:27:05;;;;;;;28.85;11.23;;;;;;;19.61;84.11;98737.78;8478534;27;20526;-72
2022/06/20 03:31:06;;;;;;;27.02;10.93;;;;;;;19.54;83.90;98737.72;8487206;27;20051;-72
2022/06/20 03:35:07;;;;;;;35.15;12.13;;;;;;;19.46;84.09;98719.63;8508174;27;20073;-72
2022/06/20 03:39:09;;;;;;;23.55;11.23;;;;;;;19.40;84.20;98704.69;8478202;27;20488;-72
2022/06/20 03:43:13;;;;;;;24.05;11.90;;;;;;;19.39;83.96;98686.69;8508177;27;20102;-72
2022/06/20 03:47:25;;;;;;;29.48;12.70;;;;;;;19.42;83.60;98680.44;8451036;28;20094;-72
2022/06/20 03:51:29;;;;;;;35.08;13.35;;;;;;;19.45;83.39;98674.25;8453545;28;20050;-72
2022/06/20 03:56:10;;;;;;;32.42;12.63;;;;;;;19.39;83.81;98659.28;8454269;28;20170;-73
2022/06/20 04:00:19;;;;;;;28.55;12.80;;;;;;;19.25;84.42;98670.09;8376135;28;20064;-72
2022/06/20 04:04:32;;;;;;;25.77;12.88;;;;;;;19.23;84.38;98683.38;8386111;28;20044;-72
2022/06/20 04:13:01;;;;;;;28.83;12.95;;;;;;;19.32;83.82;98675.66;8387315;28;20186;-73
2022/06/20 04:18:27;;;;;;;27.45;13.30;;;;;;;19.39;83.97;98675.72;8377720;28;20051;-73
2022/06/20 04:21:50;;;;;;;31.52;13.27;;;;;;;19.52;83.75;98674.28;8377581;28;20068;-71
2022/06/20 04:26:22;;;;;;;24.70;12.00;;;;;;;19.73;83.00;98679.94;8399746;28;20051;-72
2022/06/20 04:30:43;;;;;;;29.58;12.27;;;;;;;19.89;82.47;98670.66;8324640;28;20057;-72
2022/06/20 04:34:49;;;;;;;24.20;12.38;;;;;;;19.92;82.41;98665.22;8306475;28;20040;-73
2022/06/20 04:39:14;;;;;;;23.48;12.63;;;;;;;19.99;82.23;98665.25;8424025;28;20052;-72
2022/06/20 04:43:23;;;;;;;24.27;12.60;;;;;;;20.09;81.90;98663.78;8411721;28;20097;-72
2022/06/20 04:47:55;;;;;;;22.15;11.05;;;;;;;20.15;82.69;98667.72;8397418;28;20052;-72
2022/06/20 04:51:55;;;;;;;31.45;10.80;;;;;;;20.38;81.25;98676.50;8419381;28;20047;-73
2022/06/20 04:55:58;;;;;;;26.42;11.82;;;;;;;20.51;81.07;98675.00;8398640;28;20047;-73
2022/06/20 05:00:04;;;;;;;28.88;9.75;;;;;;;20.56;81.10;98671.91;8417693;28;20209;-73
2022/06/20 05:04:17;;;;;;;30.38;10.27;;;;;;;20.53;80.88;98700.09;8371074;28;20082;-72
2022/06/20 05:08:26;;;;;;;23.83;11.35;;;;;;;20.46;81.52;98716.50;8466431;27;20134;-72
2022/06/20 05:12:35;;;;;;;21.42;10.80;;;;;;;20.32;82.33;98705.44;8486383;27;20449;-74
2022/06/20 05:16:42;;;;;;;26.65;11.32;;;;;;;20.17;82.70;98662.63;8499876;27;20041;-73
2022/06/20 05:20:44;;;;;;;22.75;10.98;;;;;;;20.14;82.93;98682.59;8441524;27;20568;-73
2022/06/20 05:24:46;;;;;;;25.17;13.15;;;;;;;20.14;83.27;98668.91;8505431;27;20104;-73
2022/06/20 05:28:49;;;;;;;27.02;12.18;;;;;;;20.29;83.03;98678.00;8526669;27;20051;-73
2022/06/20 05:32:58;;;;;;;29.88;13.10;;;;;;;20.47;82.29;98678.88;8529959;27;20413;-72
2022/06/20 05:37:06;;;;;;;32.58;13.02;;;;;;;20.60;82.28;98683.66;8521649;27;20083;-73
2022/06/20 05:41:08;;;;;;;28.73;13.63;;;;;;;20.60;82.18;98683.66;8527383;27;20443;-72
2022/06/20 05:45:15;;;;;;;29.77;15.13;;;;;;;20.51;82.82;98690.69;8512299;27;20047;-72
2022/06/20 05:49:28;;;;;;;32.83;14.43;;;;;;;20.63;82.44;98685.63;8521674;27;20306;-72
2022/06/20 05:53:37;;;;;;;22.48;12.50;;;;;;;20.80;81.72;98686.09;8523281;27;20046;-72
2022/06/20 05:57:40;;;;;;;29.65;14.35;;;;;;;20.96;80.98;98681.84;8524365;27;20412;-72
2022/06/20 06:01:41;;;;;;;26.30;12.90;;;;;;;21.00;80.38;98662.63;8502177;27;20415;-72
2022/06/20 06:05:46;;;;;;;29.52;13.77;;;;;;;21.06;80.22;98661.06;8522696;27;20035;-72
2022/06/20 06:09:53;;;;;;;22.63;12.98;;;;;;;21.09;79.89;98654.81;8520505;27;20043;-73
2022/06/20 06:14:15;;;;;;;24.85;13.65;;;;;;;21.08;80.14;98645.00;8508377;27;20507;-73
2022/06/20 06:18:17;;;;;;;28.42;13.27;;;;;;;21.16;79.63;98641.13;8521172;27;20043;-73
2022/06/20 06:22:21;;;;;;;27.58;12.48;;;;;;;21.27;79.53;98638.38;8490388;27;20047;-73
2022/06/20 06:26:22;;;;;;;26.55;13.60;;;;;;;21.38;79.22;98623.50;8526146;27;20046;-72
2022/06/20 06:30:29;;;;;;;25.60;12.77;;;;;;;21.52;79.29;98599.97;8520640;27;20504;-73
2022/06/20 06:34:43;;;;;;;23.83;12.15;;;;;;;21.64;79.11;98585.78;8514578;27;20042;-72
2022/06/20 06:38:48;;;;;;;29.63;13.13;;;;;;;21.80;78.47;98588.91;8494743;27;20047;-73
2022/06/20 06:42:51;;;;;;;26.25;13.27;;;;;;;21.89;78.69;98581.03;8506240;27;20411;-72
2022/06/20 06:46:53;;;;;;;30.90;13.45;;;;;;;22.00;78.34;98579.06;8511193;27;20504;-72
2022/06/20 06:50:58;;;;;;;23.67;12.00;;;;;;;22.11;78.11;98555.09;8496247;27;20484;-72
2022/06/20 06:55:04;;;;;;;29.83;12.95;;;;;;;22.06;78.01;98539.00;8526639;27;20118;-73
2022/06/20 06:59:14;;;;;;;30.95;13.70;;;;;;;22.05;78.56;98537.41;8514156;27;20113;-72
2022/06/20 07:03:26;;;;;;;24.35;13.98;;;;;;;22.22;78.43;98527.53;8514312;27;20051;-73
2022/06/20 07:07:47;;;;;;;31.20;13.30;;;;;;;22.37;78.52;98517.25;8506325;27;20138;-73
2022/06/20 07:12:27;;;;;;;30.92;13.85;;;;;;;22.53;77.75;98509.28;8510418;27;20465;-74
2022/06/20 07:16:40;;;;;;;31.98;13.85;;;;;;;22.68;77.28;98510.78;8527566;27;20062;-73
2022/06/20 07:20:42;;;;;;;32.63;14.32;;;;;;;22.71;77.44;98499.00;8492210;27;20484;-72
2022/06/20 07:24:44;;;;;;;27.77;13.80;;;;;;;22.85;76.84;98487.09;8471356;27;20051;-73
2022/06/20 07:29:07;;;;;;;31.92;12.85;;;;;;;23.07;76.18;98472.75;8494260;27;20105;-73
2022/06/20 07:33:21;;;;;;;35.75;14.77;;;;;;;23.17;75.44;98466.34;8490898;27;20087;-72
2022/06/20 07:37:26;;;;;;;26.60;13.25;;;;;;;23.33;74.86;98473.28;8476087;27;20051;-73
2022/06/20 07:41:47;;;;;;;23.55;12.10;;;;;;;23.52;74.42;98467.25;8456947;27;20051;-72
2022/06/20 07:45:50;;;;;;;36.92;13.10;;;;;;;23.68;74.09;98472.97;8498574;27;20051;-73
2022/06/20 07:49:56;;;;;;;25.40;11.25;;;;;;;23.91;72.88;98478.59;8476025;27;20483;-72
2022/06/20 07:54:07;;;;;;;39.60;11.45;;;;;;;24.09;71.99;98491.38;8473989;27;20119;-73
2022/06/20 07:58:19;;;;;;;24.20;10.07;;;;;;;24.30;70.65;98480.09;8499810;27;20039;-72
2022/06/20 08:02:32;;;;;;;31.55;11.18;;;;;;;24.46;69.93;98477.50;8502750;27;20066;-73
2022/06/20 08:06:48;;;;;;;27.77;11.80;;;;;;;24.65;69.87;98463.00;8471530;27;20059;-72
2022/06/20 08:10:56;;;;;;;18.75;9.07;;;;;;;24.83;69.06;98458.00;8496453;27;20051;-72
2022/06/20 08:15:02;;;;;;;21.17;9.30;;;;;;;24.99;67.92;98459.34;8496453;27;20133;-72
2022/06/20 08:19:02;;;;;;;22.58;10.82;;;;;;;25.15;67.55;98446.44;8514900;27;20051;-73
2022/06/20 08:23:11;;;;;;;23.17;11.05;;;;;;;24.91;68.58;98446.84;8500844;27;20055;-72
2022/06/20 08:27:30;;;;;;;28.63;11.40;;;;;;;24.62;69.63;98447.28;8499835;27;20133;-72
2022/06/20 08:31:34;;;;;;;27.83;11.30;;;;;;;24.20;71.20;98442.41;8486714;27;20062;-72
2022/06/20 08:35:49;;;;;;;26.13;11.48;;;;;;;23.79;71.94;98457.09;8484337;27;20130;-72
2022/06/20 08:39:59;;;;;;;23.08;10.18;;;;;;;23.58;71.70;98491.16;8521001;27;20047;-72
2022/06/20 08:44:37;;;;;;;24.42;10.80;;;;;;;23.41;72.34;98496.84;8525017;27;20439;-73
2022/06/20 08:49:01;;;;;;;27.10;11.63;;;;;;;23.29;73.32;98508.38;8505136;27;20043;-72
2022/06/20 08:53:10;;;;;;;33.05;11.27;;;;;;;23.12;74.45;98530.16;8523635;27;20063;-72
2022/06/20 08:57:29;;;;;;;21.60;11.48;;;;;;;22.88;76.54;98613.72;8501313;27;20043;-72
2022/06/20 09:01:54;;;;;;;24.58;11.63;;;;;;;22.71;78.81;98631.91;8500134;27;20878;-71
2022/06/20 09:06:01;;;;;;;29.95;13.15;;;;;;;22.67;80.07;98580.78;8515343;27;20453;-73
2022/06/20 09:10:23;;;;;;;25.42;12.55;;;;;;;22.67;79.95;98569.78;8518426;27;20042;-73
2022/06/20 09:14:43;;;;;;;26.10;12.77;;;;;;;22.67;81.00;98591.78;8503374;27;20070;-73
2022/06/20 09:19:07;;;;;;;31.83;14.02;;;;;;;22.74;81.57;98575.25;8520472;27;20046;-72
2022/06/20 09:23:21;;;;;;;34.45;15.55;;;;;;;22.84;81.12;98513.84;8517885;27;20188;-71
2022/06/20 09:27:42;;;;;;;27.63;14.38;;;;;;;22.99;81.27;98465.75;8503537;27;20100;-72
2022/06/20 09:32:09;;;;;;;28.17;13.52;;;;;;;23.00;81.91;98439.75;8356577;28;20056;-72
2022/06/20 09:36:37;;;;;;;31.67;15.27;;;;;;;22.92;81.83;98421.75;8353137;28;20033;-73
2022/06/20 09:41:00;;;;;;;32.47;17.58;;;;;;;22.94;80.54;98429.59;8358910;28;20049;-73
2022/06/20 09:45:34;;;;;;;32.53;16.35;;;;;;;23.04;79.13;98424.00;8325507;28;20503;-72
2022/06/20 09:50:18;;;;;;;37.67;18.08;;;;;;;22.98;77.52;98447.66;8314316;28;20049;-72
2022/06/20 09:54:27;;;;;;;43.08;17.23;;;;;;;22.64;79.05;98465.97;8351240;28;20191;-73
2022/06/20 09:59:09;;;;;;;27.77;16.25;;;;;;;22.49;79.37;98552.56;8358286;28;20045;-72
2022/06/20 10:03:21;;;;;;;27.02;14.23;;;;;;;22.11;80.84;98615.56;8218525;28;20147;-73
2022/06/20 10:07:42;;;;;;;25.75;14.43;;;;;;;21.79;80.46;98603.81;8294222;28;20045;-73
2022/06/20 10:12:15;;;;;;;25.35;13.20;;;;;;;21.33;80.12;98604.66;8370647;28;20075;-72
2022/06/20 10:16:30;;;;;;;20.15;12.32;;;;;;;21.00;80.15;98608.50;8385856;28;20047;-72
2022/06/20 10:20:34;;;;;;;19.23;13.05;;;;;;;20.83;80.24;98620.22;8365506;28;20060;-72
2022/06/20 10:24:59;;;;;;;25.05;12.93;;;;;;;20.52;80.15;98583.28;8390399;28;20139;-72
2022/06/20 10:29:28;;;;;;;20.63;12.18;;;;;;;20.45;80.40;98566.84;8382756;28;20139;-73
2022/06/20 10:33:36;;;;;;;;;;;;;;;20.38;80.38;98586.00;8288784;28;20546;-73
2022/06/20 10:37:41;;;;;;;18.30;11.80;;;;;;;20.27;80.61;98582.41;8292552;28;20004;-72
2022/06/20 10:41:54;;;;;;;21.13;11.77;;;;;;;20.21;80.28;98578.44;8343020;28;20534;-73
2022/06/20 10:46:26;;;;;;;19.63;11.57;;;;;;;20.11;80.13;98590.16;8357182;28;20115;-73
2022/06/20 10:50:45;;;;;;;23.88;10.95;;;;;;;19.94;80.22;98591.63;8220107;28;20461;-73
2022/06/20 10:55:04;;;;;;;19.65;10.77;;;;;;;19.77;80.74;98634.19;8204104;28;20142;-74
2022/06/20 10:59:24;;;;;;;19.73;10.93;;;;;;;19.64;81.15;98605.53;8210503;28;20104;-73
2022/06/20 11:03:48;;;;;;;18.42;11.07;;;;;;;19.59;81.55;98592.19;8226191;28;20417;-72
2022/06/20 11:08:29;;;;;;;19.30;11.65;;;;;;;19.43;82.10;98586.16;8221753;28;20131;-73
2022/06/20 11:12:45;;;;;;;17.08;11.88;;;;;;;19.42;82.04;98546.25;8309306;28;20045;-72
2022/06/20 11:16:56;;;;;;;21.45;11.82;;;;;;;19.50;82.27;98550.66;8309239;28;20049;-72
2022/06/20 11:21:06;;;;;;;23.83;11.93;;;;;;;19.53;82.07;98566.31;8292713;28;20054;-72
2022/06/20 11:25:25;;;;;;;20.02;11.25;;;;;;;19.62;81.90;98591.41;8351823;27;20526;-72
2022/06/20 11:29:35;;;;;;;23.02;11.65;;;;;;;19.65;81.49;98612.59;8524932;27;20047;-72
2022/06/20 11:34:00;;;;;;;20.35;11.20;;;;;;;19.74;81.10;98582.91;8501867;27;20054;-72
2022/06/20 11:38:36;;;;;;;15.68;10.05;;;;;;;19.85;80.73;98582.19;8529150;27;20163;-72
2022/06/20 11:42:49;;;;;;;16.10;10.73;;;;;;;20.14;79.49;98573.75;8535702;27;20500;-72
2022/06/20 11:47:00;;;;;;;14.90;10.13;;;;;;;20.34;78.27;98592.66;8502562;27;20480;-73
2022/06/20 11:51:09;;;;;;;21.52;10.60;;;;;;;20.29;77.97;98591.03;8502230;27;20046;-72
2022/06/20 11:55:28;;;;;;;16.98;10.38;;;;;;;20.25;77.41;98587.47;8535160;27;20484;-72
2022/06/20 12:00:03;;;;;;;16.23;10.10;;;;;;;20.20;77.72;98576.88;8489996;27;20483;-72
2022/06/20 12:04:07;;;;;;;15.27;10.00;;;;;;;20.19;77.17;98586.28;8520323;27;20383;-72
2022/06/20 12:08:22;;;;;;;14.52;9.43;;;;;;;20.20;77.08;98565.91;8534795;27;20042;-73
2022/06/20 12:12:48;;;;;;;16.80;10.52;;;;;;;20.26;76.67;98569.84;8519959;27;20047;-73
2022/06/20 12:17:15;;;;;;;20.73;11.98;;;;;;;20.11;77.22;98552.56;8490735;27;20548;-74
2022/06/20 12:25:43;;;;;;;19.25;9.93;;;;;;;20.27;76.53;98579.66;8499759;27;20394;-72
2022/06/20 12:29:46;;;;;;;20.30;10.27;;;;;;;20.67;75.72;98573.94;8514179;27;20081;-72
2022/06/20 12:34:13;;;;;;;16.63;11.25;;;;;;;21.02;74.68;98545.00;8441426;28;20051;-72
2022/06/20 12:38:26;;;;;;;18.92;10.45;;;;;;;20.92;74.16;98540.28;8379458;28;20044;-72
2022/06/20 12:42:53;;;;;;;19.70;10.98;;;;;;;20.90;74.24;98565.34;8352506;28;20049;-72
2022/06/20 12:47:09;;;;;;;17.52;11.15;;;;;;;20.90;74.33;98592.03;8321120;28;20479;-72
2022/06/20 12:51:19;;;;;;;18.65;10.40;;;;;;;21.24;73.95;98579.56;8393651;28;20105;-72
2022/06/20 12:55:26;;;;;;;16.95;9.95;;;;;;;21.44;73.43;98572.47;8389150;28;20041;-73
2022/06/20 12:59:53;;;;;;;18.83;9.95;;;;;;;21.71;72.04;98574.81;8359980;28;20341;-73
2022/06/20 13:04:23;;;;;;;16.38;10.77;;;;;;;21.76;72.04;98582.66;8379111;28;20049;-73
2022/06/20 13:08:38;;;;;;;14.85;10.52;;;;;;;21.61;72.69;98592.09;8377497;28;20057;-72
2022/06/20 13:13:05;;;;;;;16.58;11.57;;;;;;;21.73;72.74;98567.72;8393676;27;20084;-72
2022/06/20 13:17:35;;;;;;;20.35;11.27;;;;;;;22.37;70.66;98566.75;8510752;27;20129;-72
2022/06/20 13:21:52;;;;;;;14.68;8.93;;;;;;;22.29;70.95;98553.06;8378664;28;20040;-72
2022/06/20 13:26:08;;;;;;;16.50;9.82;;;;;;;22.44;70.60;98550.22;8375789;28;20053;-72
2022/06/20 13:30:18;;;;;;;17.50;11.20;;;;;;;22.51;71.01;98550.19;8375731;28;20042;-73
2022/06/20 13:34:22;;;;;;;16.00;10.70;;;;;;;22.31;71.29;98542.41;8392261;28;20056;-73
2022/06/20 13:38:29;;;;;;;16.02;10.38;;;;;;;22.10;72.25;98537.00;8387191;28;20148;-73
2022/06/20 13:42:30;;;;;;;14.10;9.33;;;;;;;21.87;72.43;98544.94;8384522;28;20041;-74
2022/06/20 13:46:55;;;;;;;18.38;9.82;;;;;;;21.49;73.52;98547.34;8375671;28;20080;-74
2022/06/20 13:51:19;;;;;;;16.40;9.40;;;;;;;21.36;74.09;98554.41;8366693;28;20087;-73
2022/06/20 13:56:05;;;;;;;10.82;7.63;;;;;;;21.24;74.61;98574.06;8377618;28;20144;-72
2022/06/20 14:00:20;;;;;;;15.00;8.90;;;;;;;21.03;74.79;98591.28;8383739;28;20076;-72
2022/06/20 14:04:22;;;;;;;19.95;11.15;;;;;;;20.85;75.18;98595.16;8374673;28;20059;-73
2022/06/20 14:08:29;;;;;;;26.92;11.77;;;;;;;20.60;76.10;98593.13;8374443;28;20491;-73
2022/06/20 14:12:41;;;;;;;21.55;11.00;;;;;;;20.50;76.48;98563.72;8324914;28;20052;-72
2022/06/20 14:16:46;;;;;;;18.55;11.10;;;;;;;20.76;75.93;98512.41;8300814;28;20100;-73
2022/06/20 14:21:02;;;;;;;20.17;12.15;;;;;;;20.70;77.40;98533.19;8324840;28;20499;-73
2022/06/20 14:25:20;;;;;;;17.33;13.25;;;;;;;20.50;80.24;98547.25;8321747;28;20051;-73
2022/06/20 14:29:27;;;;;;;15.03;11.13;;;;;;;20.12;80.61;98564.31;8341473;28;20049;-72
2022/06/20 14:33:34;;;;;;;17.08;11.68;;;;;;;19.73;81.85;98575.84;8332454;28;20049;-72
2022/06/20 14:37:50;;;;;;;16.15;12.25;;;;;;;19.36;83.32;98577.91;8383497;28;20063;-73
2022/06/20 14:42:13;;;;;;;23.02;11.38;;;;;;;19.23;84.27;98568.41;8394899;28;20039;-72
2022/06/20 14:46:20;;;;;;;17.20;11.50;;;;;;;19.05;85.75;98583.88;8436952;28;20043;-71
2022/06/20 14:50:26;;;;;;;17.02;11.30;;;;;;;18.77;86.77;98576.97;8446520;27;20117;-72
2022/06/20 14:54:36;;;;;;;14.35;10.68;;;;;;;18.64;87.58;98566.69;8427680;28;20048;-73
2022/06/20 14:59:12;;;;;;;14.77;11.57;;;;;;;18.44;88.74;98576.97;8436324;28;20403;-73
2022/06/20 15:03:24;;;;;;;11.80;9.98;;;;;;;18.33;88.99;98597.94;8337789;28;20052;-72
2022/06/20 15:07:40;;;;;;;11.15;9.13;;;;;;;18.20;89.53;98593.84;8329413;28;20088;-73
2022/06/20 15:12:08;;;;;;;12.77;9.77;;;;;;;17.92;90.26;98600.53;8326582;28;20053;-72
2022/06/20 15:16:16;;;;;;;9.05;7.10;;;;;;;17.87;90.94;98602.81;8325271;28;20462;-73
2022/06/20 15:20:27;;;;;;;8.60;6.10;;;;;;;17.59;91.60;98619.50;8324057;28;20156;-72
2022/06/20 15:24:42;;;;;;;8.57;5.78;;;;;;;17.56;92.15;98614.78;8316875;28;20046;-74
2022/06/20 15:28:44;;;;;;;4.13;3.65;;;;;;;17.52;91.02;98641.22;8331826;28;20107;-73
2022/06/20 15:32:47;;;;;;;5.60;2.53;;;;;;;17.25;90.42;98615.84;8353069;28;20564;-72
2022/06/20 15:36:50;;;;;;;3.17;2.25;;;;;;;17.00;91.51;98620.88;8352813;28;20431;-72
2022/06/20 15:41:01;;;;;;;1.88;1.60;;;;;;;16.93;91.06;98642.53;8422688;28;20044;-72
2022/06/20 15:45:12;;;;;;;2.65;1.80;;;;;;;16.87;91.39;98660.34;8408540;28;20036;-73
2022/06/20 15:49:40;;;;;;;2.15;1.50;;;;;;;16.71;89.35;98678.72;8436418;28;20051;-73
2022/06/20 15:54:20;;;;;;;1.40;1.30;;;;;;;16.37;90.82;98692.03;8449147;28;20051;-73
2022/06/20 15:58:38;;;;;;;1.50;0.90;;;;;;;16.32;90.34;98708.69;8385137;28;20044;-71
2022/06/20 16:02:54;;;;;;;1.27;1.17;;;;;;;16.18;90.28;98718.47;8369654;28;20087;-73
2022/06/20 16:07:03;;;;;;;1.90;1.27;;;;;;;16.10;89.50;98717.50;8387921;28;20117;-72
2022/06/20 16:11:09;;;;;;;2.58;1.00;;;;;;;16.07;89.37;98731.06;8386803;28;20117;-73
2022/06/20 16:15:13;;;;;;;1.10;1.00;;;;;;;15.77;88.84;98738.88;8425705;28;20047;-73
2022/06/20 16:19:40;;;;;;;2.03;1.23;;;;;;;15.50;88.47;98741.28;8421525;28;20052;-72
2022/06/20 16:24:09;;;;;;;3.80;1.13;;;;;;;15.41;88.42;98765.16;8349083;28;20110;-74
2022/06/20 16:28:16;;;;;;;3.13;1.27;;;;;;;15.26;88.55;98751.53;8357694;28;20052;-74
2022/06/20 16:32:17;;;;;;;2.92;1.48;;;;;;;15.11;89.50;98756.59;8336070;28;20053;-73
2022/06/20 16:36:36;;;;;;;2.00;1.40;;;;;;;15.24;89.40;98757.31;8387316;28;20044;-73
2022/06/20 16:41:11;;;;;;;1.73;1.48;;;;;;;15.28;89.15;98744.56;8391331;28;20048;-73
2022/06/20 16:45:59;;;;;;;1.75;1.40;;;;;;;15.43;88.83;98765.63;8392841;28;20548;-73
2022/06/20 16:50:21;;;;;;;3.95;1.40;;;;;;;15.33;88.67;98771.56;8294652;28;20066;-72
2022/06/20 16:54:28;;;;;;;2.53;1.60;;;;;;;15.26;88.30;98746.88;8293342;28;20184;-72
2022/06/20 16:58:45;;;;;;;2.17;1.15;;;;;;;15.36;87.85;98746.38;8306669;28;20521;-72
2022/06/20 17:02:53;;;;;;;2.22;1.35;;;;;;;15.24;88.17;98754.59;8359957;28;20036;-73
2022/06/20 17:06:57;;;;;;;1.77;1.50;;;;;;;15.15;88.63;98745.78;8360037;28;20051;-72
2022/06/20 17:11:07;;;;;;;1.45;1.25;;;;;;;15.20;88.35;98759.16;8352039;28;20411;-73
2022/06/20 17:15:34;;;;;;;1.90;1.60;;;;;;;15.24;88.77;98732.81;8354199;28;20044;-72
2022/06/20 17:19:47;;;;;;;1.90;1.60;;;;;;;15.42;87.83;98706.09;8378909;28;20036;-72
2022/06/20 17:24:09;;;;;;;2.75;1.88;;;;;;;15.65;86.84;98701.63;8361746;28;20156;-72
2022/06/20 17:28:36;;;;;;;2.53;1.92;;;;;;;15.83;86.42;98710.25;8429752;28;20544;-72
2022/06/20 17:33:16;;;;;;;2.25;1.75;;;;;;;16.00;86.36;98715.31;8391977;28;20506;-72
2022/06/20 17:37:20;;;;;;;3.63;1.90;;;;;;;16.09;85.96;98713.19;8324074;28;20057;-72
2022/06/20 17:41:49;;;;;;;3.63;2.15;;;;;;;15.92;85.98;98719.00;8325080;28;20068;-72
2022/06/20 17:45:58;;;;;;;4.43;2.00;;;;;;;15.78;86.72;98718.69;8325236;28;20058;-72
2022/06/20 17:50:18;;;;;;;5.53;2.33;;;;;;;15.75;86.82;98714.75;8314785;28;20053;-73
2022/06/20 17:54:44;;;;;;;2.63;1.70;;;;;;;15.69;86.60;98731.69;8308009;28;20369;-72
2022/06/20 17:58:54;;;;;;;2.78;2.03;;;;;;;15.57;87.31;98752.41;8243823;28;20137;-72
2022/06/20 18:03:03;;;;;;;3.30;1.95;;;;;;;15.54;87.57;98755.84;8244111;28;20051;-72
2022/06/20 18:07:27;;;;;;;4.38;2.20;;;;;;;15.33;88.10;98782.44;8215191;28;20050;-72
2022/06/20 18:11:33;;;;;;;4.20;1.92;;;;;;;15.32;88.30;98772.69;8288402;28;20053;-72
2022/06/20 18:15:46;;;;;;;2.63;1.60;;;;;;;15.34;87.96;98775.84;8419399;28;20062;-72
2022/06/20 18:20:19;;;;;;;1.90;1.40;;;;;;;15.31;87.55;98782.00;8423976;28;20056;-72
2022/06/20 18:24:33;;;;;;;2.95;1.75;;;;;;;15.25;87.93;98783.38;8448811;28;20055;-73
2022/06/20 18:28:37;;;;;;;5.82;1.95;;;;;;;15.14;88.68;98782.28;8445880;28;20055;-73
2022/06/20 18:32:45;;;;;;;2.92;2.17;;;;;;;14.94;89.34;98794.16;8458162;28;20044;-73
2022/06/20 18:36:46;;;;;;;3.08;2.05;;;;;;;14.86;89.22;98797.81;8452057;28;20039;-71
2022/06/20 18:40:48;;;;;;;4.00;1.92;;;;;;;14.74;89.44;98791.25;8421791;28;20104;-72
2022/06/20 18:44:50;;;;;;;3.33;1.80;;;;;;;14.66;89.69;98784.00;8444265;28;20066;-73
2022/06/20 18:49:09;;;;;;;2.88;1.77;;;;;;;14.61;89.32;98808.72;8417428;28;20078;-73
2022/06/20 18:53:29;;;;;;;;;;;;;;;14.53;89.33;98796.06;8442859;28;20051;-71
2022/06/20 18:57:38;;;;;;;5.50;2.03;;;;;;;14.55;89.46;98799.22;8429705;28;19920;-72
2022/06/20 19:01:41;;;;;;;;;;;;;;;14.55;89.48;98801.94;8427619;28;20044;-72
2022/06/20 19:06:04;;;;;;;2.85;1.98;;;;;;;14.46;89.55;98812.13;8443386;28;19920;-73
2022/06/20 19:10:07;;;;;;;6.18;1.77;;;;;;;14.35;88.96;98827.28;8448506;28;20040;-73
2022/06/20 19:14:30;;;;;;;2.03;1.80;;;;;;;14.16;89.83;98827.06;8428818;28;20048;-72
2022/06/20 19:18:34;;;;;;;4.32;2.03;;;;;;;14.04;89.93;98827.03;8451293;28;20126;-72
2022/06/20 19:23:04;;;;;;;3.67;1.88;;;;;;;13.89;89.67;98821.16;8448373;28;20048;-72
2022/06/20 19:27:15;;;;;;;3.22;1.85;;;;;;;13.85;89.71;98808.59;8284611;28;20469;-73
2022/06/20 19:31:21;;;;;;;3.13;2.40;;;;;;;13.80;89.45;98812.28;8299518;28;20056;-72
2022/06/20 19:35:36;;;;;;;4.88;2.35;;;;;;;13.68;89.90;98806.84;8319937;28;20148;-73
2022/06/20 19:39:48;;;;;;;3.23;2.50;;;;;;;13.57;90.28;98808.41;8316431;28;20045;-73
2022/06/20 19:43:49;;;;;;;4.13;2.70;;;;;;;13.43;90.58;98807.91;8317650;28;20053;-74
2022/06/20 19:47:58;;;;;;;5.13;2.55;;;;;;;13.35;90.87;98816.91;8320389;28;20570;-75